Terminal Aerodrome Forecast
Issued by NWS Sioux Falls, SD

Home | Current Version | Previous Version | Text Only | Print | Product List | Glossary Off
Versions: 1 2 3 4 5 6 7 8 9 10 11 12 13 14 15 16 17

955
FTUS43 KFSD 081728
TAFHON
TAF
KHON 081728Z 0818/0918 34018G27KT P6SM SCT025 SCT150
      TEMPO 0818/0819 BKN025
     FM082000 34016G24KT P6SM SCT120
     FM090200 34011KT P6SM BKN250=

USA.gov is the U.S. government's official web portal to all federal, state and local government web resources and services.